Time;durP1;ratioP1;P1;durP2;ratioP2;P2;SDS_P1;SDS_P2;PMS_P1;PMS_P2;Temp;Humidity;BMP_temperature;BMP_pressure;BME280_temperature;BME280_humidity;BME280_pressure;Samples;Min_cycle;Max_cycle;Signal;HPM_P1;HPM_P2
2022/06/26 00:00:36;;;;;;;12.43;7.85;;;;;;;20.29;57.49;100312.72;1756797;81;25382;-68
2022/06/26 00:03:04;;;;;;;13.98;9.30;;;;;;;20.26;57.46;100305.25;1757231;81;25955;-68
2022/06/26 00:05:30;;;;;;;19.30;15.80;;;;;;;20.25;57.60;100311.90;1757190;81;25697;-67
2022/06/26 00:07:56;;;;;;;9.83;7.87;;;;;;;20.23;57.71;100308.74;1757354;81;25610;-67
2022/06/26 00:10:23;;;;;;;9.83;7.15;;;;;;;20.21;57.80;100315.77;1757179;80;25463;-67
2022/06/26 00:12:49;;;;;;;15.32;8.13;;;;;;;20.19;57.92;100312.02;1757314;81;25389;-69
2022/06/26 00:15:15;;;;;;;18.30;7.67;;;;;;;20.17;57.89;100314.94;1757303;81;27325;-68
2022/06/26 00:17:42;;;;;;;18.50;7.85;;;;;;;20.14;58.27;100313.72;1739643;81;25564;-69
2022/06/26 00:20:10;;;;;;;19.15;7.87;;;;;;;20.12;58.35;100320.95;1749916;81;25705;-69
2022/06/26 00:22:36;;;;;;;12.68;7.35;;;;;;;20.11;58.35;100318.02;1757233;81;25484;-68
2022/06/26 00:25:04;;;;;;;23.47;8.25;;;;;;;20.07;58.29;100321.28;1757201;81;25780;-68
2022/06/26 00:27:30;;;;;;;12.88;7.05;;;;;;;20.05;58.26;100323.61;1757252;81;27369;-69
2022/06/26 00:29:56;;;;;;;9.98;6.80;;;;;;;20.03;58.33;100318.30;1757186;81;25688;-68
2022/06/26 00:32:23;;;;;;;8.73;6.72;;;;;;;20.01;58.70;100317.30;1757234;81;25400;-68
2022/06/26 00:34:49;;;;;;;10.38;7.10;;;;;;;19.97;58.51;100326.05;1757258;81;26019;-69
2022/06/26 00:37:15;;;;;;;9.13;6.47;;;;;;;19.93;58.58;100322.48;1727291;81;25434;-69
2022/06/26 00:39:41;;;;;;;8.88;7.60;;;;;;;19.91;58.63;100322.84;1735954;81;28208;-69
2022/06/26 00:42:08;;;;;;;8.53;6.60;;;;;;;19.88;58.72;100323.58;1740675;81;25670;-69
2022/06/26 00:44:34;;;;;;;7.65;6.50;;;;;;;19.88;58.68;100322.21;1752884;81;25496;-68
2022/06/26 00:47:00;;;;;;;8.18;7.33;;;;;;;19.85;58.73;100322.17;1757243;81;25427;-69
2022/06/26 00:49:26;;;;;;;7.65;6.72;;;;;;;19.81;59.02;100322.71;1757246;81;25670;-69
2022/06/26 00:51:55;;;;;;;9.03;6.60;;;;;;;19.77;58.79;100321.30;1757254;81;27367;-69
2022/06/26 00:54:27;;;;;;;11.27;6.50;;;;;;;19.74;58.94;100333.78;1757481;81;25646;-68
2022/06/26 00:56:56;;;;;;;8.28;6.60;;;;;;;19.70;59.03;100323.88;1757270;81;25552;-69
2022/06/26 00:59:25;;;;;;;7.45;6.37;;;;;;;19.66;58.97;100323.83;1757210;81;25708;-68
2022/06/26 01:01:53;;;;;;;6.97;6.25;;;;;;;19.65;59.07;100326.95;1757356;81;25685;-68
2022/06/26 01:04:20;;;;;;;9.45;6.60;;;;;;;19.60;59.05;100320.62;1757268;81;27372;-68
2022/06/26 01:06:48;;;;;;;7.85;6.15;;;;;;;19.58;59.26;100333.93;1731959;81;25396;-68
2022/06/26 01:09:15;;;;;;;8.40;7.50;;;;;;;19.56;59.15;100334.07;1757398;81;25503;-68
2022/06/26 01:11:43;;;;;;;9.68;6.90;;;;;;;19.52;59.49;100339.50;1757037;80;25633;-70
2022/06/26 01:14:10;;;;;;;10.63;7.50;;;;;;;19.48;59.44;100337.86;1727463;81;25644;-71
2022/06/26 01:16:40;;;;;;;7.53;6.72;;;;;;;19.45;59.62;100338.63;1732000;81;27378;-71
2022/06/26 01:19:08;;;;;;;8.55;7.08;;;;;;;19.44;59.59;100336.44;1757127;81;25541;-71
2022/06/26 01:21:36;;;;;;;10.58;7.30;;;;;;;19.42;59.77;100348.36;1757506;81;25406;-71
2022/06/26 01:24:04;;;;;;;8.38;7.15;;;;;;;19.38;59.84;100346.94;1736152;81;25636;-71
2022/06/26 01:26:32;;;;;;;8.38;6.50;;;;;;;19.35;59.83;100350.41;1757229;81;25453;-71
2022/06/26 01:28:58;;;;;;;7.55;6.85;;;;;;;19.30;59.77;100349.94;1757162;81;27369;-71
2022/06/26 01:31:24;;;;;;;10.25;7.80;;;;;;;19.27;59.97;100345.17;1757113;81;25450;-71
2022/06/26 01:33:51;;;;;;;9.00;6.85;;;;;;;19.22;60.14;100346.27;1731913;81;25574;-72
2022/06/26 01:36:17;;;;;;;11.50;7.03;;;;;;;19.18;60.20;100339.94;1757179;81;25553;-71
2022/06/26 01:38:44;;;;;;;9.43;6.87;;;;;;;19.16;60.11;100345.01;1740691;81;25550;-71
2022/06/26 01:41:11;;;;;;;8.23;6.97;;;;;;;19.13;60.45;100339.66;1752971;81;27398;-71
2022/06/26 01:43:38;;;;;;;8.50;6.62;;;;;;;19.12;60.70;100342.20;1757133;81;25599;-72
2022/06/26 01:46:06;;;;;;;8.35;6.35;;;;;;;19.10;60.58;100353.31;1757166;81;25725;-71
2022/06/26 01:48:36;;;;;;;7.80;7.00;;;;;;;19.07;60.68;100358.15;1757158;81;25940;-72
2022/06/26 01:51:03;;;;;;;;;;;;;;;19.03;60.84;100359.46;1759803;81;25398;-71
2022/06/26 01:53:30;;;;;;;10.55;7.10;;;;;;;19.00;61.00;100368.41;1757212;81;28097;-71
2022/06/26 01:55:56;;;;;;;7.30;6.60;;;;;;;18.94;61.00;100359.70;1757141;81;25674;-71
2022/06/26 01:58:23;;;;;;;8.18;7.37;;;;;;;18.90;61.09;100367.08;1757137;81;25645;-71
2022/06/26 02:00:50;;;;;;;10.53;7.65;;;;;;;18.85;61.20;100369.53;1713459;82;25649;-71
2022/06/26 02:03:18;;;;;;;8.30;7.12;;;;;;;18.83;61.06;100372.41;1752901;81;25559;-72
2022/06/26 02:05:45;;;;;;;10.13;7.83;;;;;;;18.80;61.26;100377.23;1757240;81;27338;-72
2022/06/26 02:08:11;;;;;;;13.50;7.08;;;;;;;18.77;61.48;100376.00;1757134;81;25604;-72
2022/06/26 02:13:39;;;;;;;9.73;7.75;;;;;;;18.72;61.44;100372.18;1786107;80;25896;-72
2022/06/26 02:16:16;;;;;;;10.10;7.72;;;;;;;18.71;61.57;100371.17;1786352;80;25661;-70
2022/06/26 02:18:47;;;;;;;8.55;7.12;;;;;;;18.65;61.93;100374.20;1786355;80;27293;-70
2022/06/26 02:21:17;;;;;;;10.05;7.37;;;;;;;18.62;61.90;100372.77;1786147;80;25609;-70
2022/06/26 02:23:47;;;;;;;9.40;7.47;;;;;;;18.56;62.03;100372.28;1786244;80;25625;-70
2022/06/26 02:26:13;;;;;;;9.70;7.75;;;;;;;18.53;62.26;100382.58;1786381;80;25841;-70
2022/06/26 02:28:41;;;;;;;9.05;7.28;;;;;;;18.48;62.47;100380.13;1756636;80;25640;-70
2022/06/26 02:31:07;;;;;;;8.23;7.20;;;;;;;18.44;62.29;100380.06;1786277;80;28074;-69
2022/06/26 02:33:38;;;;;;;8.70;7.90;;;;;;;18.42;62.43;100382.38;1786173;80;25609;-69
2022/06/26 02:36:07;;;;;;;9.18;7.55;;;;;;;18.39;62.55;100378.98;1786374;80;25680;-71
2022/06/26 02:38:35;;;;;;;9.08;7.58;;;;;;;18.37;62.59;100384.58;1771480;80;25431;-70
2022/06/26 02:41:03;;;;;;;13.75;9.28;;;;;;;18.33;62.72;100387.83;1779964;80;25631;-70
2022/06/26 02:43:29;;;;;;;8.85;7.83;;;;;;;18.29;62.90;100386.39;1786267;80;27363;-70
2022/06/26 02:45:55;;;;;;;7.87;7.08;;;;;;;18.27;63.01;100390.86;1786159;80;25537;-70
2022/06/26 02:48:22;;;;;;;8.33;7.53;;;;;;;18.25;63.15;100389.06;1786348;80;25610;-70
2022/06/26 02:50:48;;;;;;;8.55;7.65;;;;;;;18.24;63.10;100392.94;1786296;80;25396;-71
2022/06/26 02:53:16;;;;;;;8.53;7.40;;;;;;;18.22;63.25;100392.51;1786300;80;25484;-70
2022/06/26 02:55:43;;;;;;;8.93;7.53;;;;;;;18.19;63.41;100388.33;1786356;80;28022;-70
2022/06/26 02:58:10;;;;;;;12.53;8.08;;;;;;;18.19;63.44;100400.64;1786105;80;25640;-70
2022/06/26 03:00:36;;;;;;;10.90;7.60;;;;;;;18.18;63.68;100397.09;1786291;80;25728;-70
2022/06/26 03:03:04;;;;;;;8.75;7.62;;;;;;;18.16;63.67;100393.14;1786241;80;25413;-70
2022/06/26 03:05:31;;;;;;;10.70;7.53;;;;;;;18.16;63.89;100403.51;1786276;80;25772;-70
2022/06/26 03:07:58;;;;;;;8.33;7.53;;;;;;;18.14;63.85;100390.77;1786259;80;27493;-70
2022/06/26 03:10:24;;;;;;;8.40;7.60;;;;;;;18.15;64.02;100399.75;1786154;80;25455;-70
2022/06/26 03:12:51;;;;;;;8.58;7.50;;;;;;;18.14;64.02;100404.45;1759061;79;25444;-70
2022/06/26 03:15:18;;;;;;;10.10;7.60;;;;;;;18.14;64.16;100402.30;1757237;81;25614;-70
2022/06/26 03:17:45;;;;;;;9.33;7.55;;;;;;;18.15;64.21;100403.31;1757388;81;25578;-70
2022/06/26 03:20:15;;;;;;;10.05;8.13;;;;;;;18.17;64.30;100407.06;1757302;81;27321;-70
2022/06/26 03:22:42;;;;;;;9.78;7.33;;;;;;;18.19;64.40;100406.91;1757205;81;25901;-70
2022/06/26 03:25:10;;;;;;;11.28;7.85;;;;;;;18.21;64.39;100407.92;1757224;81;25385;-70
2022/06/26 03:27:36;;;;;;;8.73;7.37;;;;;;;18.23;64.55;100413.23;1757232;81;25584;-71
2022/06/26 03:30:09;;;;;;;7.90;7.10;;;;;;;18.26;64.49;100406.27;1757316;81;25548;-70
2022/06/26 03:32:35;;;;;;;11.65;7.60;;;;;;;18.28;64.47;100417.65;1757324;81;27382;-70
2022/06/26 03:35:01;;;;;;;9.28;6.85;;;;;;;18.31;64.71;100415.57;1711012;82;25469;-71
2022/06/26 03:37:27;;;;;;;8.98;7.40;;;;;;;18.35;64.73;100426.59;1754285;81;25778;-71
2022/06/26 03:39:54;;;;;;;8.63;7.67;;;;;;;18.38;64.63;100416.30;1737043;81;25960;-71
2022/06/26 03:42:20;;;;;;;9.65;7.45;;;;;;;18.41;64.59;100424.59;1757279;81;25667;-71
2022/06/26 03:44:46;;;;;;;7.50;6.85;;;;;;;18.46;64.52;100426.26;1750105;81;27971;-71
2022/06/26 03:47:13;;;;;;;8.08;7.28;;;;;;;18.50;64.67;100426.33;1743386;81;25636;-71
2022/06/26 03:49:39;;;;;;;8.00;7.30;;;;;;;18.55;64.75;100425.45;1757264;81;25676;-71
2022/06/26 03:52:06;;;;;;;14.73;7.70;;;;;;;18.59;64.57;100427.71;1757294;81;25441;-71
2022/06/26 03:54:33;;;;;;;8.78;7.65;;;;;;;18.66;64.54;100427.03;1757277;81;25390;-71
2022/06/26 03:57:00;;;;;;;7.87;7.10;;;;;;;18.71;64.61;100428.14;1757295;81;28218;-71
2022/06/26 03:59:26;;;;;;;7.30;6.60;;;;;;;18.76;64.44;100430.59;1757173;81;25433;-71
2022/06/26 04:01:52;;;;;;;11.97;7.75;;;;;;;18.82;64.54;100424.23;1757273;81;25445;-71
2022/06/26 04:04:19;;;;;;;9.25;7.37;;;;;;;18.89;64.49;100431.25;1757208;81;25852;-71
2022/06/26 04:06:45;;;;;;;8.10;7.30;;;;;;;18.96;64.49;100428.64;1731905;81;25748;-72
2022/06/26 04:09:11;;;;;;;11.48;6.83;;;;;;;19.03;64.36;100426.61;1757196;81;28023;-72
2022/06/26 04:11:37;;;;;;;7.62;6.75;;;;;;;19.11;64.20;100427.55;1757108;79;25536;-72
2022/06/26 04:14:03;;;;;;;11.45;7.20;;;;;;;19.19;64.25;100427.91;1757210;81;25551;-71
2022/06/26 04:16:30;;;;;;;8.33;7.40;;;;;;;19.27;64.20;100437.03;1757246;81;25476;-71
2022/06/26 04:18:56;;;;;;;12.00;6.45;;;;;;;19.35;64.16;100431.89;1757250;81;25607;-71
2022/06/26 04:21:22;;;;;;;7.80;6.78;;;;;;;19.46;63.91;100437.00;1757254;81;28074;-71
2022/06/26 04:23:49;;;;;;;8.38;6.53;;;;;;;19.53;63.75;100436.30;1757143;81;25485;-71
2022/06/26 04:26:15;;;;;;;8.45;6.78;;;;;;;19.63;63.63;100440.39;1731701;81;25728;-71
2022/06/26 04:28:41;;;;;;;6.50;5.87;;;;;;;19.73;63.42;100442.52;1757198;81;25501;-71
2022/06/26 04:31:08;;;;;;;10.53;6.65;;;;;;;19.84;63.29;100448.22;1757243;81;25635;-71
2022/06/26 04:33:34;;;;;;;8.60;6.83;;;;;;;19.93;63.22;100455.02;1757243;81;26896;-71
2022/06/26 04:36:00;;;;;;;7.95;6.97;;;;;;;20.05;63.14;100455.98;1757207;81;25650;-71
2022/06/26 04:38:27;;;;;;;6.67;6.05;;;;;;;20.16;63.01;100454.20;1744034;81;25612;-71
2022/06/26 04:40:53;;;;;;;9.15;6.15;;;;;;;20.26;62.85;100450.00;1749497;81;25643;-71
2022/06/26 04:43:19;;;;;;;6.92;5.20;;;;;;;20.38;62.28;100452.55;1757259;81;25942;-71
2022/06/26 04:45:46;;;;;;;8.30;5.92;;;;;;;20.48;62.08;100449.14;1757207;81;27313;-71
2022/06/26 04:48:12;;;;;;;7.55;6.12;;;;;;;20.60;61.80;100454.99;1748323;81;25456;-71
2022/06/26 04:50:38;;;;;;;6.42;5.78;;;;;;;20.73;61.51;100465.77;1741086;81;25402;-72
2022/06/26 04:53:04;;;;;;;10.25;5.90;;;;;;;20.81;61.12;100457.23;1757208;81;25549;-72
2022/06/26 04:55:30;;;;;;;6.50;5.53;;;;;;;20.93;60.78;100458.16;1757283;81;25392;-71
2022/06/26 04:57:56;;;;;;;8.83;5.70;;;;;;;21.02;60.31;100456.67;1757239;81;27225;-71
2022/06/26 05:00:22;;;;;;;7.40;6.03;;;;;;;21.13;60.21;100462.30;1757149;81;25747;-71
2022/06/26 05:02:48;;;;;;;7.47;6.10;;;;;;;21.26;59.92;100466.34;1757209;81;25470;-71
2022/06/26 05:05:15;;;;;;;7.83;6.17;;;;;;;21.37;59.77;100465.09;1757174;81;25569;-71
2022/06/26 05:07:41;;;;;;;6.05;5.47;;;;;;;21.50;59.45;100471.13;1757266;81;25391;-68
2022/06/26 05:10:08;;;;;;;9.10;5.72;;;;;;;21.60;59.16;100473.19;1757208;81;27301;-65
2022/06/26 05:12:34;;;;;;;7.58;5.25;;;;;;;21.70;58.45;100474.45;1772248;80;25646;-65
2022/06/26 05:15:01;;;;;;;10.10;5.83;;;;;;;21.81;58.02;100475.91;1786206;80;25697;-65
2022/06/26 05:17:27;;;;;;;8.68;5.47;;;;;;;21.90;57.94;100474.23;1786132;80;25597;-65
2022/06/26 05:19:53;;;;;;;8.15;5.58;;;;;;;22.02;57.91;100480.80;1786232;80;25692;-65
2022/06/26 05:22:19;;;;;;;6.95;5.50;;;;;;;22.15;57.69;100481.27;1786150;80;28189;-65
2022/06/26 05:24:46;;;;;;;7.33;5.35;;;;;;;22.27;57.45;100478.79;1786040;80;25735;-65
2022/06/26 05:27:12;;;;;;;7.67;5.62;;;;;;;22.37;57.12;100487.17;1786158;80;25503;-65
2022/06/26 05:29:37;;;;;;;6.10;5.45;;;;;;;22.52;57.01;100492.75;1786140;80;25389;-65
2022/06/26 05:32:05;;;;;;;6.17;5.45;;;;;;;22.67;56.58;100495.78;1786059;80;25535;-65
2022/06/26 05:34:31;;;;;;;8.43;6.08;;;;;;;22.83;56.46;100491.91;1786207;80;27342;-65
2022/06/26 05:36:57;;;;;;;6.92;4.90;;;;;;;23.02;56.13;100494.92;1786120;80;25775;-65
2022/06/26 05:39:23;;;;;;;5.45;4.95;;;;;;;23.19;55.48;100499.75;1764278;80;25477;-65
2022/06/26 05:41:49;;;;;;;8.08;5.85;;;;;;;23.36;54.90;100498.78;1786202;80;25386;-65
2022/06/26 05:44:15;;;;;;;6.03;5.25;;;;;;;23.53;54.86;100508.28;1786177;80;25507;-65
2022/06/26 05:46:42;;;;;;;6.58;4.50;;;;;;;23.66;53.91;100508.10;1786161;80;27354;-65
2022/06/26 05:49:08;;;;;;;10.13;4.97;;;;;;;23.78;53.76;100505.55;1786077;80;25425;-65
2022/06/26 05:51:35;;;;;;;5.62;4.75;;;;;;;23.94;53.59;100508.73;1786176;80;26613;-65
2022/06/26 05:54:01;;;;;;;6.00;4.67;;;;;;;24.06;52.99;100506.17;1786132;80;25645;-65
2022/06/26 05:56:27;;;;;;;6.25;4.60;;;;;;;24.16;53.07;100506.75;1786150;80;25504;-65
2022/06/26 05:58:53;;;;;;;8.43;5.35;;;;;;;24.33;52.50;100514.01;1772352;80;27395;-65
2022/06/26 06:01:19;;;;;;;7.45;5.30;;;;;;;24.44;52.27;100514.78;1778229;80;25744;-65
2022/06/26 06:03:45;;;;;;;7.90;4.90;;;;;;;24.56;51.61;100517.75;1786236;80;25615;-65
2022/06/26 06:06:11;;;;;;;7.83;5.20;;;;;;;24.67;51.66;100521.86;1786111;80;25446;-65
2022/06/26 06:08:37;;;;;;;5.83;4.80;;;;;;;24.78;50.86;100522.62;1786164;80;25448;-66
2022/06/26 06:11:03;;;;;;;8.30;4.62;;;;;;;24.89;50.42;100521.18;1786135;80;27277;-66
2022/06/26 06:13:29;;;;;;;6.45;5.00;;;;;;;24.98;50.24;100522.34;1785934;79;25426;-65
2022/06/26 06:15:55;;;;;;;5.83;4.53;;;;;;;25.14;50.28;100521.07;1786137;80;25572;-65
2022/06/26 06:18:21;;;;;;;8.00;4.37;;;;;;;25.33;49.82;100523.95;1786154;80;26014;-65
2022/06/26 06:20:50;;;;;;;4.70;4.30;;;;;;;25.50;49.28;100523.05;1786176;80;25583;-65
2022/06/26 06:23:15;;;;;;;5.60;4.50;;;;;;;25.65;48.75;100532.05;1786082;80;27342;-65
2022/06/26 06:25:41;;;;;;;10.45;4.35;;;;;;;25.79;48.57;100532.54;1786084;80;25777;-65
2022/06/26 06:28:08;;;;;;;5.47;4.00;;;;;;;25.96;48.11;100530.85;1786188;80;25639;-65
2022/06/26 06:30:35;;;;;;;9.33;4.60;;;;;;;26.16;48.01;100537.23;1786066;80;25576;-67
2022/06/26 06:33:01;;;;;;;5.35;4.65;;;;;;;26.35;47.26;100531.70;1786238;80;25558;-65
2022/06/26 06:35:27;;;;;;;5.22;3.75;;;;;;;26.55;47.00;100534.66;1783072;80;27307;-65
2022/06/26 06:37:53;;;;;;;7.47;3.70;;;;;;;26.75;46.15;100530.09;1761131;80;25577;-65
2022/06/26 06:40:19;;;;;;;6.03;3.47;;;;;;;26.94;45.65;100539.00;1770766;80;26113;-65
2022/06/26 06:42:46;;;;;;;4.75;3.40;;;;;;;27.07;44.54;100541.99;1786032;80;25411;-65
2022/06/26 06:45:13;;;;;;;6.58;3.80;;;;;;;27.14;44.01;100536.34;1786155;80;25394;-65
2022/06/26 06:47:39;;;;;;;5.72;3.77;;;;;;;27.25;43.73;100536.98;1786141;80;27291;-65
2022/06/26 06:50:07;;;;;;;4.28;3.12;;;;;;;27.32;43.73;100537.52;1786076;80;25521;-65
2022/06/26 06:52:34;;;;;;;6.60;3.52;;;;;;;27.45;42.76;100540.50;1786152;80;25611;-65
2022/06/26 06:55:02;;;;;;;6.72;3.50;;;;;;;27.51;42.39;100535.45;1786104;80;25629;-65
2022/06/26 06:57:29;;;;;;;5.62;3.60;;;;;;;27.63;42.02;100537.47;1786368;80;25473;-65
2022/06/26 06:59:55;;;;;;;4.45;4.05;;;;;;;27.74;42.31;100539.48;1786154;80;27574;-65
2022/06/26 07:02:21;;;;;;;5.80;3.20;;;;;;;27.89;41.69;100536.66;1786155;80;25547;-65
2022/06/26 07:04:47;;;;;;;3.33;2.95;;;;;;;28.03;41.38;100538.44;1786265;80;25556;-65
2022/06/26 07:07:14;;;;;;;4.60;3.20;;;;;;;28.21;41.65;100535.94;1786213;80;25387;-65
2022/06/26 07:09:41;;;;;;;5.33;3.15;;;;;;;28.40;41.26;100536.59;1786317;80;25460;-65
2022/06/26 07:12:08;;;;;;;3.87;3.15;;;;;;;28.57;40.62;100533.91;1786235;80;28166;-65
2022/06/26 07:14:34;;;;;;;3.75;3.45;;;;;;;28.71;39.72;100538.41;1781516;80;25622;-64
2022/06/26 07:17:00;;;;;;;3.85;3.40;;;;;;;28.83;39.61;100545.52;1784211;80;25646;-65
2022/06/26 07:19:26;;;;;;;5.17;3.47;;;;;;;28.99;39.84;100546.17;1788886;80;27575;-64
2022/06/26 07:21:53;;;;;;;4.62;3.20;;;;;;;29.09;38.37;100541.59;1786778;80;25528;-65
2022/06/26 07:24:19;;;;;;;4.83;3.10;;;;;;;29.19;38.38;100546.17;1788799;80;27305;-64
2022/06/26 07:26:45;;;;;;;4.67;3.30;;;;;;;29.33;37.83;100534.55;1782379;80;25872;-64
2022/06/26 07:29:12;;;;;;;5.50;3.20;;;;;;;29.42;37.68;100545.28;1788929;80;26344;-65
2022/06/26 07:31:38;;;;;;;4.15;2.83;;;;;;;29.47;36.90;100546.74;1762854;80;25566;-64
2022/06/26 07:34:13;;;;;;;5.67;3.30;;;;;;;29.44;36.58;100547.63;1783625;80;25627;-64
2022/06/26 07:36:41;;;;;;;5.95;3.27;;;;;;;29.46;37.40;100542.41;1789237;80;27377;-64
2022/06/26 07:39:10;;;;;;;3.60;3.15;;;;;;;29.57;36.85;100544.93;1770523;80;25836;-65
2022/06/26 07:41:36;;;;;;;3.50;3.20;;;;;;;29.65;36.42;100544.17;1785682;80;29160;-65
2022/06/26 07:44:03;;;;;;;3.80;3.35;;;;;;;29.76;36.95;100538.54;1788589;80;25603;-65
2022/06/26 07:46:30;;;;;;;5.75;3.55;;;;;;;29.88;35.84;100543.22;1788933;80;25579;-65
2022/06/26 07:48:56;;;;;;;7.08;3.60;;;;;;;29.88;36.01;100536.25;1784143;80;27439;-65
2022/06/26 07:51:22;;;;;;;5.80;3.37;;;;;;;29.98;36.08;100542.98;1776515;80;25388;-65
2022/06/26 07:53:48;;;;;;;4.92;3.10;;;;;;;30.10;36.18;100544.24;1774555;79;25776;-65
2022/06/26 07:56:15;;;;;;;5.37;3.25;;;;;;;30.34;36.29;100539.84;1782568;80;25684;-65
2022/06/26 07:58:41;;;;;;;6.35;3.22;;;;;;;30.63;35.22;100543.27;1784006;80;25777;-65
2022/06/26 08:01:08;;;;;;;4.05;3.52;;;;;;;30.78;34.97;100540.87;1789113;80;27320;-64
2022/06/26 08:03:36;;;;;;;5.97;3.30;;;;;;;30.93;34.71;100538.45;1789162;80;25749;-65
2022/06/26 08:06:02;;;;;;;5.23;3.27;;;;;;;31.07;33.91;100541.64;1789536;80;25563;-66
2022/06/26 08:08:28;;;;;;;5.40;2.95;;;;;;;31.27;34.30;100543.43;1789156;79;26500;-65
2022/06/26 08:10:54;;;;;;;5.62;3.33;;;;;;;31.51;33.46;100551.52;1789222;80;25644;-65
2022/06/26 08:13:20;;;;;;;8.30;3.87;;;;;;;31.63;33.03;100552.89;1776608;80;27365;-65
2022/06/26 08:15:47;;;;;;;4.87;3.00;;;;;;;31.75;32.57;100549.91;1781910;80;25729;-65
2022/06/26 08:18:13;;;;;;;3.20;2.90;;;;;;;31.69;32.18;100547.53;1788158;80;25687;-65
2022/06/26 08:20:39;;;;;;;3.77;3.47;;;;;;;31.71;31.76;100551.28;1788817;80;26180;-72
2022/06/26 08:23:06;;;;;;;5.95;2.90;;;;;;;31.65;31.76;100533.67;1788778;80;25493;-70
2022/06/26 08:25:32;;;;;;;5.33;2.70;;;;;;;31.78;31.76;100555.23;1788737;80;27311;-69
2022/06/26 08:27:59;;;;;;;7.60;2.90;;;;;;;31.74;31.43;100549.77;1779594;80;25493;-76
2022/06/26 08:30:26;;;;;;;4.80;3.25;;;;;;;31.72;31.21;100550.83;1788860;80;25781;-71
2022/06/26 08:32:56;;;;;;;4.28;3.42;;;;;;;31.69;28.80;100559.31;1788849;80;25697;-73
2022/06/26 08:35:20;;;;;;;4.78;2.90;;;;;;;31.53;30.47;100554.02;1788722;80;25683;-74
2022/06/26 08:37:46;;;;;;;6.12;3.35;;;;;;;31.62;31.09;100558.95;1788936;80;27088;-72
2022/06/26 08:40:13;;;;;;;5.12;3.08;;;;;;;31.64;30.53;100556.48;1788755;80;25818;-72
2022/06/26 08:42:42;;;;;;;4.75;2.85;;;;;;;31.79;31.12;100551.98;1788809;80;25601;-71
2022/06/26 08:45:09;;;;;;;4.65;3.25;;;;;;;32.00;30.34;100545.52;1788964;80;26001;-72
2022/06/26 08:47:39;;;;;;;3.30;3.10;;;;;;;32.12;30.54;100555.14;1788803;80;25735;-72
2022/06/26 08:50:08;;;;;;;4.22;3.00;;;;;;;32.26;30.57;100560.85;1788753;80;27294;-69
2022/06/26 08:52:35;;;;;;;4.08;3.42;;;;;;;32.31;28.99;100558.25;1788893;80;25788;-71
2022/06/26 08:55:04;;;;;;;4.53;2.92;;;;;;;32.12;29.29;100550.31;1785228;80;25737;-72
2022/06/26 08:57:33;;;;;;;4.03;3.17;;;;;;;32.12;29.74;100552.34;1783830;80;25831;-73
2022/06/26 09:00:00;;;;;;;4.53;3.17;;;;;;;32.20;30.08;100542.47;1762192;80;25430;-70
2022/06/26 09:02:26;;;;;;;4.37;2.62;;;;;;;32.45;29.80;100554.16;1788500;80;26923;-70
2022/06/26 09:04:52;;;;;;;3.10;2.80;;;;;;;32.52;29.00;100546.92;1788518;80;25684;-71
2022/06/26 09:07:19;;;;;;;5.95;3.08;;;;;;;32.56;28.94;100539.17;1760719;80;25751;-71
2022/06/26 09:09:45;;;;;;;5.58;3.33;;;;;;;32.65;29.13;100552.48;1788499;80;25681;-69
2022/06/26 09:12:11;;;;;;;4.53;2.80;;;;;;;32.68;28.94;100535.40;1788411;80;25746;-71
2022/06/26 09:14:38;;;;;;;3.33;2.90;;;;;;;32.65;28.12;100539.88;1788693;80;27303;-71
2022/06/26 09:17:05;;;;;;;4.55;2.67;;;;;;;32.79;28.34;100565.16;1788389;80;25669;-69
2022/06/26 09:19:35;;;;;;;3.27;2.90;;;;;;;32.62;28.62;100533.02;1788712;80;25618;-68
2022/06/26 09:22:14;;;;;;;3.62;2.72;;;;;;;32.71;28.18;100544.27;1788648;80;25764;-69
2022/06/26 09:24:54;;;;;;;4.92;3.05;;;;;;;32.92;28.94;100551.09;1788464;80;25692;-73
2022/06/26 09:27:21;;;;;;;4.15;2.90;;;;;;;33.04;28.48;100546.02;1788414;80;27309;-72
2022/06/26 09:29:52;;;;;;;3.98;2.70;;;;;;;33.13;28.66;100536.28;1788513;80;25551;-74
2022/06/26 09:32:21;;;;;;;3.85;2.80;;;;;;;33.46;28.75;100530.20;1787965;79;25807;-74
2022/06/26 09:34:51;;;;;;;3.30;3.08;;;;;;;33.81;28.56;100525.78;1772153;80;26017;-71
2022/06/26 09:37:20;;;;;;;4.05;3.05;;;;;;;33.92;27.53;100536.58;1783996;80;25682;-72
2022/06/26 09:39:46;;;;;;;5.78;2.90;;;;;;;33.70;27.45;100539.49;1766422;80;27255;-73
2022/06/26 09:42:24;;;;;;;5.10;2.95;;;;;;;33.63;28.15;100536.95;1788076;80;26292;-74
2022/06/26 09:44:53;;;;;;;5.90;3.08;;;;;;;33.84;27.93;100545.89;1788973;80;25662;-74
2022/06/26 09:47:34;;;;;;;5.05;2.70;;;;;;;33.83;27.12;100537.34;1784904;80;25739;-73
2022/06/26 09:50:04;;;;;;;8.38;2.83;;;;;;;33.75;27.42;100531.87;1788807;80;25639;-75
2022/06/26 09:52:32;;;;;;;4.95;2.72;;;;;;;33.93;27.72;100535.94;1788985;80;27402;-69
2022/06/26 09:55:00;;;;;;;4.57;2.87;;;;;;;34.16;27.33;100547.97;1789132;80;25760;-70
2022/06/26 09:57:28;;;;;;;4.55;3.15;;;;;;;34.03;27.09;100534.07;1789057;80;25570;-71
2022/06/26 09:59:57;;;;;;;5.03;2.90;;;;;;;33.94;26.11;100530.50;1788950;80;25633;-72
2022/06/26 10:08:07;;;;;;;6.12;3.05;;;;;;;33.28;26.98;100530.13;1788916;80;25376;-71
2022/06/26 10:10:35;;;;;;;6.53;3.27;;;;;;;33.26;27.58;100531.22;1788919;80;25661;-70
2022/06/26 10:13:06;;;;;;;5.75;3.52;;;;;;;33.36;27.38;100526.44;1789010;80;25686;-71
2022/06/26 10:15:43;;;;;;;5.15;2.67;;;;;;;33.37;28.13;100522.38;1730706;81;25733;-72
2022/06/26 10:18:21;;;;;;;3.22;2.75;;;;;;;33.81;27.95;100525.02;1750838;81;27389;-70
2022/06/26 10:20:49;;;;;;;3.27;2.60;;;;;;;33.88;26.52;100531.72;1740751;82;25783;-71
2022/06/26 10:23:34;;;;;;;3.85;2.65;;;;;;;33.96;27.33;100512.57;1740716;82;25608;-71
2022/06/26 10:26:21;;;;;;;5.72;2.98;;;;;;;34.13;26.94;100511.64;1740575;82;25773;-71
2022/06/26 10:28:59;;;;;;;2.92;2.52;;;;;;;34.32;25.59;100522.27;1740717;82;25757;-70
2022/06/26 10:31:33;;;;;;;5.97;2.80;;;;;;;33.94;25.97;100524.26;1740566;82;27316;-71
2022/06/26 10:34:12;;;;;;;3.42;2.95;;;;;;;33.77;26.44;100521.59;1740488;82;25323;-71
2022/06/26 10:36:38;;;;;;;3.70;2.70;;;;;;;34.09;26.93;100513.20;1740792;81;25512;-70
2022/06/26 10:39:07;;;;;;;5.35;2.83;;;;;;;34.41;25.87;100514.63;1740774;82;25872;-72
2022/06/26 10:44:44;;;;;;;4.40;2.35;;;;;;;34.55;26.03;100508.98;1740748;82;28059;-71
2022/06/26 10:47:17;;;;;;;3.87;2.37;;;;;;;34.88;25.65;100504.72;1740698;82;25505;-71
2022/06/26 10:49:49;;;;;;;2.67;2.45;;;;;;;34.96;25.38;100510.94;1740804;82;25419;-71
2022/06/26 10:52:31;;;;;;;6.10;2.80;;;;;;;35.17;25.76;100508.35;1727848;82;26536;-71
2022/06/26 10:54:57;;;;;;;5.15;2.65;;;;;;;35.28;24.82;100512.88;1739017;82;25789;-71
2022/06/26 10:57:38;;;;;;;5.47;2.50;;;;;;;35.28;24.49;100514.28;1742514;81;27502;-71
2022/06/26 11:00:08;;;;;;;3.62;2.67;;;;;;;35.22;24.58;100516.17;1751532;81;25720;-72
2022/06/26 11:02:38;;;;;;;3.58;2.77;;;;;;;35.02;24.73;100511.70;1751715;81;25514;-72
2022/06/26 11:05:08;;;;;;;4.78;2.90;;;;;;;35.05;25.11;100512.16;1751705;81;25698;-71
2022/06/26 11:07:51;;;;;;;5.33;2.77;;;;;;;35.30;24.97;100501.92;1751662;81;25405;-72
2022/06/26 11:10:21;;;;;;;4.62;2.60;;;;;;;35.57;25.30;100524.13;1751696;81;27510;-71
2022/06/26 11:12:50;;;;;;;2.95;2.75;;;;;;;35.52;24.80;100517.11;1751473;81;25741;-71
2022/06/26 11:15:34;;;;;;;5.12;2.70;;;;;;;35.49;24.74;100517.30;1755755;80;25660;-70
2022/06/26 11:18:06;;;;;;;3.33;3.02;;;;;;;35.45;24.36;100509.64;1756984;81;25536;-71
2022/06/26 11:20:52;;;;;;;3.65;2.72;;;;;;;35.38;24.35;100507.19;1757018;81;25741;-70
2022/06/26 11:23:25;;;;;;;6.50;3.15;;;;;;;35.24;24.74;100507.27;1757061;81;27314;-71
2022/06/26 11:26:08;;;;;;;2.98;2.55;;;;;;;35.37;25.05;100512.65;1756779;81;25561;-70
2022/06/26 11:28:44;;;;;;;3.60;2.60;;;;;;;35.71;24.86;100509.97;1757053;81;25690;-71
2022/06/26 11:31:21;;;;;;;4.22;2.75;;;;;;;36.09;24.60;100518.31;1756964;81;25483;-70
2022/06/26 11:33:47;;;;;;;5.45;2.90;;;;;;;35.93;23.71;100506.88;1757018;81;25394;-71
2022/06/26 11:36:16;;;;;;;4.40;3.00;;;;;;;35.57;24.25;100510.06;1707153;81;27415;-70
2022/06/26 11:38:53;;;;;;;3.65;3.30;;;;;;;35.59;24.43;100497.70;1740298;81;25458;-70